createdAt,value
2022-11-20T00:37:16.380Z,6.65
2022-11-20T01:06:03.735Z,6.55
2022-11-20T01:34:42.522Z,6.4
2022-11-20T02:03:23.646Z,6.5
2022-11-20T02:31:52.799Z,6.35
2022-11-20T03:00:36.688Z,6.02
2022-11-20T03:29:22.201Z,6.14
2022-11-20T03:57:49.998Z,6.1
2022-11-20T04:26:25.195Z,6.1
2022-11-20T04:55:06.684Z,5.98
2022-11-20T05:23:41.314Z,6.03
2022-11-20T05:52:19.078Z,5.92
2022-11-20T06:20:56.274Z,5.96
2022-11-20T06:49:40.790Z,5.94
2022-11-20T07:18:12.741Z,5.94
2022-11-20T07:46:50.048Z,6.07
2022-11-20T08:15:28.021Z,6.11
2022-11-20T08:44:10.787Z,6.27
2022-11-20T09:12:45.273Z,6.56
2022-11-20T09:41:24.942Z,6.84
2022-11-20T10:10:06.962Z,7.53
2022-11-20T10:38:44.267Z,7.61
2022-11-20T11:07:18.316Z,8.09
2022-11-20T11:35:51.955Z,8.31
2022-11-20T12:04:01.397Z,9.1
2022-11-20T12:32:34.258Z,8.77
2022-11-20T13:01:08.174Z,8.74
2022-11-20T13:29:31.444Z,8.81
2022-11-20T13:58:04.683Z,8.81
2022-11-20T14:26:12.372Z,8.52
2022-11-20T14:54:42.138Z,8.13
2022-11-20T15:23:12.308Z,7.82
2022-11-20T15:51:39.642Z,7.56
2022-11-20T16:20:14.313Z,7.39
2022-11-20T16:48:41.736Z,7.28
2022-11-20T17:17:20.020Z,7.29
2022-11-20T17:45:34.894Z,7.23
2022-11-20T18:14:08.854Z,6.59
2022-11-20T18:42:40.240Z,6.11
2022-11-20T19:11:18.361Z,5.58
2022-11-20T19:39:59.198Z,5.59
2022-11-20T20:08:31.389Z,5.56
2022-11-20T20:36:59.618Z,5.38
2022-11-20T21:05:31.963Z,5.42
2022-11-20T21:34:05.611Z,5.26
2022-11-20T22:03:01.900Z,5.08
2022-11-20T22:31:37.218Z,5.18
2022-11-20T23:00:24.444Z,5.38
2022-11-20T23:29:08.729Z,5.29
2022-11-20T23:57:38.300Z,5.54
